sensor_id;sensor_type;location;lat;lon;timestamp;temperature;humidity
22540;DHT22;11436;50.860;4.334;2022-11-04T00:01:17;10.40;99.90
22540;DHT22;11436;50.860;4.334;2022-11-04T00:03:43;10.50;99.90
22540;DHT22;11436;50.860;4.334;2022-11-04T00:06:09;10.50;99.90
22540;DHT22;11436;50.860;4.334;2022-11-04T00:08:35;10.40;99.90
22540;DHT22;11436;50.860;4.334;2022-11-04T00:11:01;10.40;99.90
22540;DHT22;11436;50.860;4.334;2022-11-04T00:13:46;10.40;99.90
22540;DHT22;11436;50.860;4.334;2022-11-04T00:16:12;10.40;99.90
22540;DHT22;11436;50.860;4.334;2022-11-04T00:19:01;10.30;99.90
22540;DHT22;11436;50.860;4.334;2022-11-04T00:21:31;10.30;99.90
22540;DHT22;11436;50.860;4.334;2022-11-04T00:24:15;10.30;99.90
22540;DHT22;11436;50.860;4.334;2022-11-04T00:26:59;10.30;99.90
22540;DHT22;11436;50.860;4.334;2022-11-04T00:29:43;10.30;99.90
22540;DHT22;11436;50.860;4.334;2022-11-04T00:32:09;10.40;99.90
22540;DHT22;11436;50.860;4.334;2022-11-04T00:34:54;10.40;99.90
22540;DHT22;11436;50.860;4.334;2022-11-04T00:37:20;10.40;99.90
22540;DHT22;11436;50.860;4.334;2022-11-04T00:39:46;10.40;99.90
22540;DHT22;11436;50.860;4.334;2022-11-04T00:42:12;10.40;99.90
22540;DHT22;11436;50.860;4.334;2022-11-04T00:44:38;10.40;99.90
22540;DHT22;11436;50.860;4.334;2022-11-04T00:47:04;10.50;99.90
22540;DHT22;11436;50.860;4.334;2022-11-04T00:49:29;10.60;99.90
22540;DHT22;11436;50.860;4.334;2022-11-04T00:51:55;10.70;99.90
22540;DHT22;11436;50.860;4.334;2022-11-04T00:54:21;10.70;99.90
22540;DHT22;11436;50.860;4.334;2022-11-04T00:56:47;10.70;99.90
22540;DHT22;11436;50.860;4.334;2022-11-04T00:59:15;10.70;99.90
22540;DHT22;11436;50.860;4.334;2022-11-04T01:01:42;10.80;99.90
22540;DHT22;11436;50.860;4.334;2022-11-04T01:04:08;10.80;99.90
22540;DHT22;11436;50.860;4.334;2022-11-04T01:06:34;10.80;99.90
22540;DHT22;11436;50.860;4.334;2022-11-04T01:09:04;10.80;99.90
22540;DHT22;11436;50.860;4.334;2022-11-04T01:11:30;10.80;99.90
22540;DHT22;11436;50.860;4.334;2022-11-04T01:13:57;10.90;99.90
22540;DHT22;11436;50.860;4.334;2022-11-04T01:16:23;10.90;99.90
22540;DHT22;11436;50.860;4.334;2022-11-04T01:18:50;10.90;99.90
22540;DHT22;11436;50.860;4.334;2022-11-04T01:21:16;10.80;99.90
22540;DHT22;11436;50.860;4.334;2022-11-04T01:23:43;10.80;99.90
22540;DHT22;11436;50.860;4.334;2022-11-04T01:26:12;10.80;99.90
22540;DHT22;11436;50.860;4.334;2022-11-04T01:28:38;10.70;99.90
22540;DHT22;11436;50.860;4.334;2022-11-04T01:31:16;10.70;99.90
22540;DHT22;11436;50.860;4.334;2022-11-04T01:33:42;10.80;99.90
22540;DHT22;11436;50.860;4.334;2022-11-04T01:36:09;10.80;99.90
22540;DHT22;11436;50.860;4.334;2022-11-04T01:38:35;10.70;99.90
22540;DHT22;11436;50.860;4.334;2022-11-04T01:41:01;10.70;99.90
22540;DHT22;11436;50.860;4.334;2022-11-04T01:43:49;10.60;99.90
22540;DHT22;11436;50.860;4.334;2022-11-04T01:46:34;10.60;99.90
22540;DHT22;11436;50.860;4.334;2022-11-04T01:51:36;10.60;99.90
22540;DHT22;11436;50.860;4.334;2022-11-04T01:54:05;10.50;99.90
22540;DHT22;11436;50.860;4.334;2022-11-04T01:56:32;10.50;99.90
22540;DHT22;11436;50.860;4.334;2022-11-04T01:59:03;10.50;99.90
22540;DHT22;11436;50.860;4.334;2022-11-04T02:01:30;10.50;99.90
22540;DHT22;11436;50.860;4.334;2022-11-04T02:03:58;10.40;99.90
22540;DHT22;11436;50.860;4.334;2022-11-04T02:06:44;10.40;99.90
22540;DHT22;11436;50.860;4.334;2022-11-04T02:09:11;10.40;99.90
22540;DHT22;11436;50.860;4.334;2022-11-04T02:11:37;10.40;99.90
22540;DHT22;11436;50.860;4.334;2022-11-04T02:14:21;10.30;99.90
22540;DHT22;11436;50.860;4.334;2022-11-04T02:16:47;10.30;99.90
22540;DHT22;11436;50.860;4.334;2022-11-04T02:22:16;10.20;99.90
22540;DHT22;11436;50.860;4.334;2022-11-04T02:30:53;10.40;99.90
22540;DHT22;11436;50.860;4.334;2022-11-04T02:33:32;10.40;99.90
22540;DHT22;11436;50.860;4.334;2022-11-04T02:47:07;10.60;99.90
22540;DHT22;11436;50.860;4.334;2022-11-04T02:49:47;10.60;99.90
22540;DHT22;11436;50.860;4.334;2022-11-04T02:52:24;10.70;99.90
22540;DHT22;11436;50.860;4.334;2022-11-04T02:54:55;10.80;99.90
22540;DHT22;11436;50.860;4.334;2022-11-04T02:57:29;10.80;99.90
22540;DHT22;11436;50.860;4.334;2022-11-04T03:00:02;10.80;99.90
22540;DHT22;11436;50.860;4.334;2022-11-04T03:02:33;10.90;99.90
22540;DHT22;11436;50.860;4.334;2022-11-04T03:05:02;10.90;99.90
22540;DHT22;11436;50.860;4.334;2022-11-04T03:07:32;10.90;99.90
22540;DHT22;11436;50.860;4.334;2022-11-04T03:10:04;10.90;99.90
22540;DHT22;11436;50.860;4.334;2022-11-04T03:12:41;11.00;99.90
22540;DHT22;11436;50.860;4.334;2022-11-04T03:15:12;11.00;99.90
22540;DHT22;11436;50.860;4.334;2022-11-04T03:17:50;11.00;99.90
22540;DHT22;11436;50.860;4.334;2022-11-04T03:20:25;11.10;99.90
22540;DHT22;11436;50.860;4.334;2022-11-04T03:22:53;11.20;99.90
22540;DHT22;11436;50.860;4.334;2022-11-04T03:25:27;11.00;99.90
22540;DHT22;11436;50.860;4.334;2022-11-04T03:30:40;11.00;99.90
22540;DHT22;11436;50.860;4.334;2022-11-04T03:35:59;11.10;99.90
22540;DHT22;11436;50.860;4.334;2022-11-04T03:38:27;11.10;99.90
22540;DHT22;11436;50.860;4.334;2022-11-04T03:40:53;11.20;99.90
22540;DHT22;11436;50.860;4.334;2022-11-04T03:43:25;11.40;99.90
22540;DHT22;11436;50.860;4.334;2022-11-04T03:45:53;11.30;99.90
22540;DHT22;11436;50.860;4.334;2022-11-04T03:48:19;11.40;99.90
22540;DHT22;11436;50.860;4.334;2022-11-04T03:50:47;11.40;99.90
22540;DHT22;11436;50.860;4.334;2022-11-04T03:53:16;11.30;99.90
22540;DHT22;11436;50.860;4.334;2022-11-04T04:00:51;11.30;99.90
22540;DHT22;11436;50.860;4.334;2022-11-04T04:03:29;11.40;99.90
22540;DHT22;11436;50.860;4.334;2022-11-04T04:06:13;11.40;99.90
22540;DHT22;11436;50.860;4.334;2022-11-04T04:11:15;11.40;99.90
22540;DHT22;11436;50.860;4.334;2022-11-04T04:13:52;11.50;99.90
22540;DHT22;11436;50.860;4.334;2022-11-04T04:16:31;11.50;99.90
22540;DHT22;11436;50.860;4.334;2022-11-04T04:19:19;11.50;99.90
22540;DHT22;11436;50.860;4.334;2022-11-04T04:21:57;11.50;99.90
22540;DHT22;11436;50.860;4.334;2022-11-04T04:24:31;11.60;99.90
22540;DHT22;11436;50.860;4.334;2022-11-04T04:27:19;11.50;99.90
22540;DHT22;11436;50.860;4.334;2022-11-04T04:30:01;11.60;99.90
22540;DHT22;11436;50.860;4.334;2022-11-04T04:32:31;11.50;99.90
22540;DHT22;11436;50.860;4.334;2022-11-04T04:34:57;11.60;99.90
22540;DHT22;11436;50.860;4.334;2022-11-04T04:37:43;11.60;99.90
22540;DHT22;11436;50.860;4.334;2022-11-04T04:40:13;11.70;99.90
22540;DHT22;11436;50.860;4.334;2022-11-04T04:42:58;11.70;99.90
22540;DHT22;11436;50.860;4.334;2022-11-04T04:45:53;11.80;99.90
22540;DHT22;11436;50.860;4.334;2022-11-04T04:48:20;11.70;99.90
22540;DHT22;11436;50.860;4.334;2022-11-04T04:50:50;11.80;99.90
22540;DHT22;11436;50.860;4.334;2022-11-04T04:53:18;11.80;99.90
22540;DHT22;11436;50.860;4.334;2022-11-04T04:55:44;11.70;99.90
22540;DHT22;11436;50.860;4.334;2022-11-04T04:58:09;11.80;99.90
22540;DHT22;11436;50.860;4.334;2022-11-04T05:00:35;11.90;99.90
22540;DHT22;11436;50.860;4.334;2022-11-04T05:03:01;11.80;99.90
22540;DHT22;11436;50.860;4.334;2022-11-04T05:05:26;11.80;99.90
22540;DHT22;11436;50.860;4.334;2022-11-04T05:07:52;11.80;99.90
22540;DHT22;11436;50.860;4.334;2022-11-04T05:10:18;11.80;99.90
22540;DHT22;11436;50.860;4.334;2022-11-04T05:12:44;11.80;99.90
22540;DHT22;11436;50.860;4.334;2022-11-04T05:15:29;11.90;99.90
22540;DHT22;11436;50.860;4.334;2022-11-04T05:17:59;12.00;99.90
22540;DHT22;11436;50.860;4.334;2022-11-04T05:20:26;12.00;99.90
22540;DHT22;11436;50.860;4.334;2022-11-04T05:22:53;12.00;99.90
22540;DHT22;11436;50.860;4.334;2022-11-04T05:25:19;12.00;99.90
22540;DHT22;11436;50.860;4.334;2022-11-04T05:27:45;12.00;99.90
22540;DHT22;11436;50.860;4.334;2022-11-04T05:30:11;12.00;99.90
22540;DHT22;11436;50.860;4.334;2022-11-04T05:32:37;11.90;99.90
22540;DHT22;11436;50.860;4.334;2022-11-04T05:35:03;11.80;99.90
22540;DHT22;11436;50.860;4.334;2022-11-04T05:37:28;11.80;99.90
22540;DHT22;11436;50.860;4.334;2022-11-04T05:39:54;11.60;99.90
22540;DHT22;11436;50.860;4.334;2022-11-04T05:42:20;11.60;99.90
22540;DHT22;11436;50.860;4.334;2022-11-04T05:44:45;11.40;99.90
22540;DHT22;11436;50.860;4.334;2022-11-04T05:47:11;11.50;99.90
22540;DHT22;11436;50.860;4.334;2022-11-04T05:49:37;11.50;99.90
22540;DHT22;11436;50.860;4.334;2022-11-04T05:52:04;11.50;99.90
22540;DHT22;11436;50.860;4.334;2022-11-04T05:54:30;11.50;99.90
22540;DHT22;11436;50.860;4.334;2022-11-04T05:56:55;11.50;99.90
22540;DHT22;11436;50.860;4.334;2022-11-04T05:59:21;11.60;99.90
22540;DHT22;11436;50.860;4.334;2022-11-04T06:01:47;11.60;99.90
22540;DHT22;11436;50.860;4.334;2022-11-04T06:04:17;11.60;99.90
22540;DHT22;11436;50.860;4.334;2022-11-04T06:06:44;11.70;99.90
22540;DHT22;11436;50.860;4.334;2022-11-04T06:09:10;11.60;99.90
22540;DHT22;11436;50.860;4.334;2022-11-04T06:11:36;11.60;99.90
22540;DHT22;11436;50.860;4.334;2022-11-04T06:14:03;11.80;99.90
22540;DHT22;11436;50.860;4.334;2022-11-04T06:16:29;11.80;99.90
22540;DHT22;11436;50.860;4.334;2022-11-04T06:18:54;11.70;99.90
22540;DHT22;11436;50.860;4.334;2022-11-04T06:21:24;11.80;99.90
22540;DHT22;11436;50.860;4.334;2022-11-04T06:23:52;11.70;99.90
22540;DHT22;11436;50.860;4.334;2022-11-04T06:26:18;11.70;99.90
22540;DHT22;11436;50.860;4.334;2022-11-04T06:28:44;11.60;99.90
22540;DHT22;11436;50.860;4.334;2022-11-04T06:31:11;11.60;99.90
22540;DHT22;11436;50.860;4.334;2022-11-04T06:33:37;11.70;99.90
22540;DHT22;11436;50.860;4.334;2022-11-04T06:36:05;11.70;99.90
22540;DHT22;11436;50.860;4.334;2022-11-04T06:38:34;11.70;99.90
22540;DHT22;11436;50.860;4.334;2022-11-04T06:41:00;11.70;99.90
22540;DHT22;11436;50.860;4.334;2022-11-04T06:43:26;11.60;99.90
22540;DHT22;11436;50.860;4.334;2022-11-04T06:45:55;11.60;99.90
22540;DHT22;11436;50.860;4.334;2022-11-04T06:48:21;11.70;99.90
22540;DHT22;11436;50.860;4.334;2022-11-04T06:50:47;11.60;99.90
22540;DHT22;11436;50.860;4.334;2022-11-04T06:53:12;11.60;99.90
22540;DHT22;11436;50.860;4.334;2022-11-04T06:55:38;11.50;99.90
22540;DHT22;11436;50.860;4.334;2022-11-04T06:58:04;11.40;99.90
22540;DHT22;11436;50.860;4.334;2022-11-04T07:00:30;11.40;99.90
22540;DHT22;11436;50.860;4.334;2022-11-04T07:02:56;11.40;99.90
22540;DHT22;11436;50.860;4.334;2022-11-04T07:05:22;11.50;99.90
22540;DHT22;11436;50.860;4.334;2022-11-04T07:07:48;11.50;99.90
22540;DHT22;11436;50.860;4.334;2022-11-04T07:10:14;11.70;99.90
22540;DHT22;11436;50.860;4.334;2022-11-04T07:12:39;11.90;99.90
22540;DHT22;11436;50.860;4.334;2022-11-04T07:15:05;12.10;99.90
22540;DHT22;11436;50.860;4.334;2022-11-04T07:17:31;12.10;99.90
22540;DHT22;11436;50.860;4.334;2022-11-04T07:19:57;12.10;99.90
22540;DHT22;11436;50.860;4.334;2022-11-04T07:22:23;12.10;99.90
22540;DHT22;11436;50.860;4.334;2022-11-04T07:24:48;12.10;99.90
22540;DHT22;11436;50.860;4.334;2022-11-04T07:27:14;12.30;99.90
22540;DHT22;11436;50.860;4.334;2022-11-04T07:29:40;12.30;99.90
22540;DHT22;11436;50.860;4.334;2022-11-04T07:32:06;12.30;99.90
22540;DHT22;11436;50.860;4.334;2022-11-04T07:34:31;12.30;99.90
22540;DHT22;11436;50.860;4.334;2022-11-04T07:36:57;12.40;99.90
22540;DHT22;11436;50.860;4.334;2022-11-04T07:39:23;12.40;99.90
22540;DHT22;11436;50.860;4.334;2022-11-04T07:41:49;12.50;99.90
22540;DHT22;11436;50.860;4.334;2022-11-04T07:44:15;12.40;99.90
22540;DHT22;11436;50.860;4.334;2022-11-04T07:46:40;12.50;99.90
22540;DHT22;11436;50.860;4.334;2022-11-04T07:49:06;12.40;99.90
22540;DHT22;11436;50.860;4.334;2022-11-04T07:51:32;12.50;99.90
22540;DHT22;11436;50.860;4.334;2022-11-04T07:53:59;12.50;99.90
22540;DHT22;11436;50.860;4.334;2022-11-04T07:56:25;12.40;99.90
22540;DHT22;11436;50.860;4.334;2022-11-04T07:58:51;12.30;99.90
22540;DHT22;11436;50.860;4.334;2022-11-04T08:01:20;12.30;99.90
22540;DHT22;11436;50.860;4.334;2022-11-04T08:03:48;12.30;99.90
22540;DHT22;11436;50.860;4.334;2022-11-04T08:06:16;12.50;99.90
22540;DHT22;11436;50.860;4.334;2022-11-04T08:08:42;12.50;99.90
22540;DHT22;11436;50.860;4.334;2022-11-04T08:11:19;12.50;99.90
22540;DHT22;11436;50.860;4.334;2022-11-04T08:13:46;12.50;99.90
22540;DHT22;11436;50.860;4.334;2022-11-04T08:16:17;12.60;99.90
22540;DHT22;11436;50.860;4.334;2022-11-04T08:18:43;12.60;99.90
22540;DHT22;11436;50.860;4.334;2022-11-04T08:21:10;12.60;99.90
22540;DHT22;11436;50.860;4.334;2022-11-04T08:23:35;12.60;99.90
22540;DHT22;11436;50.860;4.334;2022-11-04T08:26:05;12.60;99.90
22540;DHT22;11436;50.860;4.334;2022-11-04T08:28:31;12.80;99.90
22540;DHT22;11436;50.860;4.334;2022-11-04T08:30:58;12.80;99.90
22540;DHT22;11436;50.860;4.334;2022-11-04T08:33:25;12.80;99.90
22540;DHT22;11436;50.860;4.334;2022-11-04T08:35:52;12.60;99.90
22540;DHT22;11436;50.860;4.334;2022-11-04T08:38:18;12.50;99.90
22540;DHT22;11436;50.860;4.334;2022-11-04T08:40:44;12.40;99.90
22540;DHT22;11436;50.860;4.334;2022-11-04T08:43:09;12.30;99.90
22540;DHT22;11436;50.860;4.334;2022-11-04T08:45:44;12.50;99.90
22540;DHT22;11436;50.860;4.334;2022-11-04T08:48:10;12.70;99.90
22540;DHT22;11436;50.860;4.334;2022-11-04T08:50:37;12.60;99.90
22540;DHT22;11436;50.860;4.334;2022-11-04T08:53:04;12.60;99.90
22540;DHT22;11436;50.860;4.334;2022-11-04T08:55:31;12.60;99.90
22540;DHT22;11436;50.860;4.334;2022-11-04T08:57:57;12.70;99.90
22540;DHT22;11436;50.860;4.334;2022-11-04T09:00:23;12.50;99.90
22540;DHT22;11436;50.860;4.334;2022-11-04T09:02:49;12.50;99.90
22540;DHT22;11436;50.860;4.334;2022-11-04T09:05:15;12.40;99.90
22540;DHT22;11436;50.860;4.334;2022-11-04T09:07:41;12.30;99.90
22540;DHT22;11436;50.860;4.334;2022-11-04T09:10:08;12.20;99.90
22540;DHT22;11436;50.860;4.334;2022-11-04T09:12:34;12.20;99.90
22540;DHT22;11436;50.860;4.334;2022-11-04T09:15:00;12.10;99.90
22540;DHT22;11436;50.860;4.334;2022-11-04T09:17:26;12.10;99.90
22540;DHT22;11436;50.860;4.334;2022-11-04T09:19:52;12.00;99.90
22540;DHT22;11436;50.860;4.334;2022-11-04T09:22:18;12.10;99.90
22540;DHT22;11436;50.860;4.334;2022-11-04T09:24:43;12.10;99.90
22540;DHT22;11436;50.860;4.334;2022-11-04T09:27:09;12.10;99.90
22540;DHT22;11436;50.860;4.334;2022-11-04T09:29:35;12.10;99.90
22540;DHT22;11436;50.860;4.334;2022-11-04T09:32:04;12.20;99.90
22540;DHT22;11436;50.860;4.334;2022-11-04T09:34:30;12.40;99.90
22540;DHT22;11436;50.860;4.334;2022-11-04T09:36:56;12.40;99.90
22540;DHT22;11436;50.860;4.334;2022-11-04T09:39:23;12.50;99.90
22540;DHT22;11436;50.860;4.334;2022-11-04T09:42:12;12.50;99.90
22540;DHT22;11436;50.860;4.334;2022-11-04T09:44:52;12.50;99.90
22540;DHT22;11436;50.860;4.334;2022-11-04T09:47:20;12.50;99.90
22540;DHT22;11436;50.860;4.334;2022-11-04T09:49:49;12.60;99.90
22540;DHT22;11436;50.860;4.334;2022-11-04T09:52:22;12.60;99.90
22540;DHT22;11436;50.860;4.334;2022-11-04T09:55:17;12.60;99.90
22540;DHT22;11436;50.860;4.334;2022-11-04T09:57:47;12.50;99.90
22540;DHT22;11436;50.860;4.334;2022-11-04T10:00:18;12.50;99.90
22540;DHT22;11436;50.860;4.334;2022-11-04T10:03:03;12.80;99.90
22540;DHT22;11436;50.860;4.334;2022-11-04T10:08:23;12.80;99.90
22540;DHT22;11436;50.860;4.334;2022-11-04T10:11:08;12.80;99.90
22540;DHT22;11436;50.860;4.334;2022-11-04T10:17:08;12.70;99.90
22540;DHT22;11436;50.860;4.334;2022-11-04T10:25:21;12.90;99.90
22540;DHT22;11436;50.860;4.334;2022-11-04T10:27:48;12.90;99.90
22540;DHT22;11436;50.860;4.334;2022-11-04T10:30:16;12.70;99.90
22540;DHT22;11436;50.860;4.334;2022-11-04T10:33:00;12.70;99.90
22540;DHT22;11436;50.860;4.334;2022-11-04T10:35:48;12.70;99.90
22540;DHT22;11436;50.860;4.334;2022-11-04T10:38:43;12.60;99.90
22540;DHT22;11436;50.860;4.334;2022-11-04T10:41:24;12.50;99.90
22540;DHT22;11436;50.860;4.334;2022-11-04T10:44:15;12.60;99.90
22540;DHT22;11436;50.860;4.334;2022-11-04T10:49:40;12.90;99.90
22540;DHT22;11436;50.860;4.334;2022-11-04T10:52:08;12.90;99.90
22540;DHT22;11436;50.860;4.334;2022-11-04T10:54:40;13.10;99.90
22540;DHT22;11436;50.860;4.334;2022-11-04T10:57:06;13.40;99.90
22540;DHT22;11436;50.860;4.334;2022-11-04T11:00:03;13.20;99.90
22540;DHT22;11436;50.860;4.334;2022-11-04T11:02:45;12.80;99.90
22540;DHT22;11436;50.860;4.334;2022-11-04T11:07:47;12.50;99.90
22540;DHT22;11436;50.860;4.334;2022-11-04T11:10:23;12.40;99.90
22540;DHT22;11436;50.860;4.334;2022-11-04T11:12:53;12.40;99.90
22540;DHT22;11436;50.860;4.334;2022-11-04T11:18:18;12.40;99.90
22540;DHT22;11436;50.860;4.334;2022-11-04T11:21:02;12.50;99.90
22540;DHT22;11436;50.860;4.334;2022-11-04T11:25:58;12.70;99.90
22540;DHT22;11436;50.860;4.334;2022-11-04T11:28:25;12.80;99.90
22540;DHT22;11436;50.860;4.334;2022-11-04T11:30:55;12.90;99.90
22540;DHT22;11436;50.860;4.334;2022-11-04T11:33:29;13.30;99.90
22540;DHT22;11436;50.860;4.334;2022-11-04T11:36:01;13.40;99.90
22540;DHT22;11436;50.860;4.334;2022-11-04T11:38:31;13.60;99.90
22540;DHT22;11436;50.860;4.334;2022-11-04T11:41:13;14.00;99.90
22540;DHT22;11436;50.860;4.334;2022-11-04T11:43:50;14.40;99.90
22540;DHT22;11436;50.860;4.334;2022-11-04T11:46:27;14.30;99.90
22540;DHT22;11436;50.860;4.334;2022-11-04T11:48:59;14.00;99.90
22540;DHT22;11436;50.860;4.334;2022-11-04T11:51:37;13.80;99.90
22540;DHT22;11436;50.860;4.334;2022-11-04T11:54:17;13.50;99.90
22540;DHT22;11436;50.860;4.334;2022-11-04T11:56:51;13.40;99.90
22540;DHT22;11436;50.860;4.334;2022-11-04T11:59:37;13.40;99.90
22540;DHT22;11436;50.860;4.334;2022-11-04T12:05:10;13.70;99.90
22540;DHT22;11436;50.860;4.334;2022-11-04T12:07:47;13.70;99.90
22540;DHT22;11436;50.860;4.334;2022-11-04T12:21:19;13.40;99.90
22540;DHT22;11436;50.860;4.334;2022-11-04T12:24:41;13.50;99.90
22540;DHT22;11436;50.860;4.334;2022-11-04T12:27:15;13.40;99.90
22540;DHT22;11436;50.860;4.334;2022-11-04T12:38:18;13.00;99.90
22540;DHT22;11436;50.860;4.334;2022-11-04T12:40:50;13.20;99.90
22540;DHT22;11436;50.860;4.334;2022-11-04T12:43:50;13.50;99.90
22540;DHT22;11436;50.860;4.334;2022-11-04T13:00:12;13.30;99.90
22540;DHT22;11436;50.860;4.334;2022-11-04T13:02:59;13.10;99.90
22540;DHT22;11436;50.860;4.334;2022-11-04T13:05:55;13.10;99.90
22540;DHT22;11436;50.860;4.334;2022-11-04T13:11:22;13.10;99.90
22540;DHT22;11436;50.860;4.334;2022-11-04T13:16:38;12.90;99.90
22540;DHT22;11436;50.860;4.334;2022-11-04T13:19:18;12.80;99.90
22540;DHT22;11436;50.860;4.334;2022-11-04T13:21:44;12.70;99.90
22540;DHT22;11436;50.860;4.334;2022-11-04T13:24:26;12.80;99.90
22540;DHT22;11436;50.860;4.334;2022-11-04T13:26:57;12.90;99.90
22540;DHT22;11436;50.860;4.334;2022-11-04T13:29:25;13.00;99.90
22540;DHT22;11436;50.860;4.334;2022-11-04T13:32:12;13.10;99.90
22540;DHT22;11436;50.860;4.334;2022-11-04T13:37:55;13.10;99.90
22540;DHT22;11436;50.860;4.334;2022-11-04T13:40:27;13.30;99.90
22540;DHT22;11436;50.860;4.334;2022-11-04T13:45:54;14.20;99.90
22540;DHT22;11436;50.860;4.334;2022-11-04T13:48:25;14.30;99.90
22540;DHT22;11436;50.860;4.334;2022-11-04T13:53:45;13.60;99.90
22540;DHT22;11436;50.860;4.334;2022-11-04T13:56:32;13.30;99.90
22540;DHT22;11436;50.860;4.334;2022-11-04T13:59:06;13.10;99.90
22540;DHT22;11436;50.860;4.334;2022-11-04T14:01:39;13.00;99.90
22540;DHT22;11436;50.860;4.334;2022-11-04T14:04:28;13.10;99.90
22540;DHT22;11436;50.860;4.334;2022-11-04T14:06:58;13.00;99.90
22540;DHT22;11436;50.860;4.334;2022-11-04T14:12:25;13.10;99.90
22540;DHT22;11436;50.860;4.334;2022-11-04T14:14:52;13.10;99.90
22540;DHT22;11436;50.860;4.334;2022-11-04T14:25:36;13.20;99.90
22540;DHT22;11436;50.860;4.334;2022-11-04T14:30:53;12.00;99.90
22540;DHT22;11436;50.860;4.334;2022-11-04T14:33:27;11.70;99.90
22540;DHT22;11436;50.860;4.334;2022-11-04T14:35:54;11.50;99.90
22540;DHT22;11436;50.860;4.334;2022-11-04T14:38:27;11.40;99.90
22540;DHT22;11436;50.860;4.334;2022-11-04T14:43:53;11.40;99.90
22540;DHT22;11436;50.860;4.334;2022-11-04T14:46:21;11.30;99.90
22540;DHT22;11436;50.860;4.334;2022-11-04T14:48:53;11.20;99.90
22540;DHT22;11436;50.860;4.334;2022-11-04T14:51:31;11.20;99.90
22540;DHT22;11436;50.860;4.334;2022-11-04T14:54:09;11.20;99.90
22540;DHT22;11436;50.860;4.334;2022-11-04T14:56:36;11.20;99.90
22540;DHT22;11436;50.860;4.334;2022-11-04T14:59:04;11.20;99.90
22540;DHT22;11436;50.860;4.334;2022-11-04T15:01:36;11.30;99.90
22540;DHT22;11436;50.860;4.334;2022-11-04T15:06:59;11.30;99.90
22540;DHT22;11436;50.860;4.334;2022-11-04T15:09:34;11.30;99.90
22540;DHT22;11436;50.860;4.334;2022-11-04T15:12:11;11.30;99.90
22540;DHT22;11436;50.860;4.334;2022-11-04T15:14:56;11.30;99.90
22540;DHT22;11436;50.860;4.334;2022-11-04T15:17:25;11.20;99.90
22540;DHT22;11436;50.860;4.334;2022-11-04T15:19:55;11.30;99.90
22540;DHT22;11436;50.860;4.334;2022-11-04T15:22:22;11.30;99.90
22540;DHT22;11436;50.860;4.334;2022-11-04T15:24:48;11.40;99.90
22540;DHT22;11436;50.860;4.334;2022-11-04T15:27:22;11.40;99.90
22540;DHT22;11436;50.860;4.334;2022-11-04T15:30:01;11.50;99.90
22540;DHT22;11436;50.860;4.334;2022-11-04T15:32:27;11.40;99.90
22540;DHT22;11436;50.860;4.334;2022-11-04T15:34:54;11.40;99.90
22540;DHT22;11436;50.860;4.334;2022-11-04T15:37:22;11.50;99.90
22540;DHT22;11436;50.860;4.334;2022-11-04T15:39:51;11.40;99.90
22540;DHT22;11436;50.860;4.334;2022-11-04T15:42:25;11.40;99.90
22540;DHT22;11436;50.860;4.334;2022-11-04T15:56:18;11.30;99.90
22540;DHT22;11436;50.860;4.334;2022-11-04T15:58:45;11.30;99.90
22540;DHT22;11436;50.860;4.334;2022-11-04T16:01:16;11.20;99.90
22540;DHT22;11436;50.860;4.334;2022-11-04T16:03:53;11.30;99.90
22540;DHT22;11436;50.860;4.334;2022-11-04T16:06:40;11.30;99.90
22540;DHT22;11436;50.860;4.334;2022-11-04T16:11:36;11.30;99.90
22540;DHT22;11436;50.860;4.334;2022-11-04T16:14:21;11.30;99.90
22540;DHT22;11436;50.860;4.334;2022-11-04T16:16:49;11.30;99.90
22540;DHT22;11436;50.860;4.334;2022-11-04T16:19:22;11.20;99.90
22540;DHT22;11436;50.860;4.334;2022-11-04T16:22:06;11.30;99.90
22540;DHT22;11436;50.860;4.334;2022-11-04T16:24:37;11.20;99.90
22540;DHT22;11436;50.860;4.334;2022-11-04T16:27:08;11.30;99.90
22540;DHT22;11436;50.860;4.334;2022-11-04T16:29:36;11.40;99.90
22540;DHT22;11436;50.860;4.334;2022-11-04T16:32:06;11.50;99.90
22540;DHT22;11436;50.860;4.334;2022-11-04T16:34:33;11.50;99.90
22540;DHT22;11436;50.860;4.334;2022-11-04T16:37:00;11.60;99.90
22540;DHT22;11436;50.860;4.334;2022-11-04T16:39:25;11.60;99.90
22540;DHT22;11436;50.860;4.334;2022-11-04T16:41:51;11.60;99.90
22540;DHT22;11436;50.860;4.334;2022-11-04T16:44:22;11.60;99.90
22540;DHT22;11436;50.860;4.334;2022-11-04T16:46:48;11.60;99.90
22540;DHT22;11436;50.860;4.334;2022-11-04T16:49:16;11.50;99.90
22540;DHT22;11436;50.860;4.334;2022-11-04T16:51:55;11.50;99.90
22540;DHT22;11436;50.860;4.334;2022-11-04T16:54:21;11.50;99.90
22540;DHT22;11436;50.860;4.334;2022-11-04T16:56:47;11.40;99.90
22540;DHT22;11436;50.860;4.334;2022-11-04T16:59:13;11.40;99.90
22540;DHT22;11436;50.860;4.334;2022-11-04T17:01:39;11.40;99.90
22540;DHT22;11436;50.860;4.334;2022-11-04T17:04:06;11.40;99.90
22540;DHT22;11436;50.860;4.334;2022-11-04T17:06:33;11.30;99.90
22540;DHT22;11436;50.860;4.334;2022-11-04T17:08:59;11.40;99.90
22540;DHT22;11436;50.860;4.334;2022-11-04T17:11:26;11.40;99.90
22540;DHT22;11436;50.860;4.334;2022-11-04T17:13:54;11.40;99.90
22540;DHT22;11436;50.860;4.334;2022-11-04T17:16:20;11.40;99.90
22540;DHT22;11436;50.860;4.334;2022-11-04T17:18:46;11.30;99.90
22540;DHT22;11436;50.860;4.334;2022-11-04T17:21:14;11.30;99.90
22540;DHT22;11436;50.860;4.334;2022-11-04T17:23:42;11.20;99.90
22540;DHT22;11436;50.860;4.334;2022-11-04T17:26:10;11.30;99.90
22540;DHT22;11436;50.860;4.334;2022-11-04T17:28:36;11.30;99.90
22540;DHT22;11436;50.860;4.334;2022-11-04T17:31:02;11.30;99.90
22540;DHT22;11436;50.860;4.334;2022-11-04T17:33:28;11.50;99.90
22540;DHT22;11436;50.860;4.334;2022-11-04T17:35:54;11.50;99.90
22540;DHT22;11436;50.860;4.334;2022-11-04T17:38:19;11.40;99.90
22540;DHT22;11436;50.860;4.334;2022-11-04T17:40:46;11.60;99.90
22540;DHT22;11436;50.860;4.334;2022-11-04T17:43:30;11.60;99.90
22540;DHT22;11436;50.860;4.334;2022-11-04T17:46:15;11.50;99.90
22540;DHT22;11436;50.860;4.334;2022-11-04T17:49:00;11.50;99.90
22540;DHT22;11436;50.860;4.334;2022-11-04T17:51:27;11.30;99.90
22540;DHT22;11436;50.860;4.334;2022-11-04T17:53:53;11.30;99.90
22540;DHT22;11436;50.860;4.334;2022-11-04T17:56:21;11.20;99.90
22540;DHT22;11436;50.860;4.334;2022-11-04T17:58:47;11.10;99.90
22540;DHT22;11436;50.860;4.334;2022-11-04T18:01:14;11.00;99.90
22540;DHT22;11436;50.860;4.334;2022-11-04T18:03:41;10.80;99.90
22540;DHT22;11436;50.860;4.334;2022-11-04T18:06:09;10.70;99.90
22540;DHT22;11436;50.860;4.334;2022-11-04T18:08:36;10.50;99.90
22540;DHT22;11436;50.860;4.334;2022-11-04T18:11:04;10.40;99.90
22540;DHT22;11436;50.860;4.334;2022-11-04T18:13:31;10.40;99.90
22540;DHT22;11436;50.860;4.334;2022-11-04T18:15:57;10.30;99.90